createdAt,value
2022-11-03T00:01:10.734Z,61.03
2022-11-03T00:03:37.334Z,60.84
2022-11-03T00:06:04.100Z,60.73
2022-11-03T00:08:39.987Z,61.10
2022-11-03T00:11:10.439Z,60.86
2022-11-03T00:13:38.621Z,60.59
2022-11-03T00:16:06.304Z,60.59
2022-11-03T00:18:33.556Z,60.70
2022-11-03T00:21:05.150Z,60.64
2022-11-03T00:23:34.622Z,60.65
2022-11-03T00:26:07.842Z,60.60
2022-11-03T00:28:35.096Z,60.59
2022-11-03T00:31:05.659Z,60.62
2022-11-03T00:33:32.665Z,60.59
2022-11-03T00:36:00.976Z,60.76
2022-11-03T00:38:28.945Z,60.73
2022-11-03T00:41:00.034Z,60.80
2022-11-03T00:43:28.356Z,60.68
2022-11-03T00:45:55.879Z,60.90
2022-11-03T00:48:22.948Z,60.63
2022-11-03T00:50:49.525Z,60.82
2022-11-03T00:53:15.971Z,60.69
2022-11-03T00:55:42.505Z,60.74
2022-11-03T00:58:08.973Z,61.03
2022-11-03T01:00:35.434Z,60.86
2022-11-03T01:03:01.908Z,60.83
2022-11-03T01:05:28.386Z,60.90
2022-11-03T01:07:54.983Z,61.05
2022-11-03T01:10:21.548Z,61.08
2022-11-03T01:12:48.029Z,61.01
2022-11-03T01:15:14.576Z,61.14
2022-11-03T01:17:41.046Z,61.38
2022-11-03T01:20:08.407Z,61.49
2022-11-03T01:22:34.950Z,61.58
2022-11-03T01:25:01.459Z,61.45
2022-11-03T01:31:13.965Z,61.81
2022-11-03T01:33:41.051Z,61.48
2022-11-03T01:36:08.499Z,61.43
2022-11-03T01:38:36.543Z,61.48
2022-11-03T01:41:04.347Z,62.36
2022-11-03T01:43:31.499Z,61.28
2022-11-03T01:46:05.426Z,61.95
2022-11-03T01:48:34.411Z,61.47
2022-11-03T01:51:02.959Z,61.45
2022-11-03T01:53:30.261Z,61.43
2022-11-03T01:55:59.374Z,61.39
2022-11-03T01:58:37.346Z,62.08
2022-11-03T02:01:04.144Z,61.26
2022-11-03T02:03:45.067Z,61.98
2022-11-03T02:06:12.276Z,61.30
2022-11-03T02:08:46.887Z,61.72
2022-11-03T02:11:14.478Z,61.41
2022-11-03T02:13:41.468Z,61.21
2022-11-03T02:16:08.047Z,61.10
2022-11-03T02:18:35.176Z,61.23
2022-11-03T02:21:30.458Z,61.84
2022-11-03T02:24:18.595Z,62.13
2022-11-03T02:26:49.358Z,61.59
2022-11-03T02:29:16.286Z,61.22
2022-11-03T02:31:50.113Z,61.43
2022-11-03T02:34:42.669Z,61.52
2022-11-03T02:37:17.459Z,61.40
2022-11-03T02:39:48.689Z,61.53
2022-11-03T02:42:18.193Z,61.15
2022-11-03T02:44:46.572Z,61.17
2022-11-03T02:47:14.641Z,61.12
2022-11-03T02:49:49.814Z,62.04
2022-11-03T02:52:37.960Z,62.13
2022-11-03T02:55:19.656Z,62.10
2022-11-03T02:58:14.380Z,62.25
2022-11-03T03:01:01.443Z,62.10
2022-11-03T03:03:33.292Z,61.53
2022-11-03T03:06:05.639Z,61.66
2022-11-03T03:08:35.075Z,61.53
2022-11-03T03:11:04.940Z,61.73
2022-11-03T03:13:33.596Z,61.49
2022-11-03T03:16:12.149Z,61.90
2022-11-03T03:19:06.503Z,62.50
2022-11-03T03:21:39.552Z,62.08
2022-11-03T03:24:14.982Z,62.52
2022-11-03T03:26:45.078Z,62.00
2022-11-03T03:29:15.868Z,62.27
2022-11-03T03:31:47.959Z,62.25
2022-11-03T03:34:33.932Z,62.26
2022-11-03T03:37:02.477Z,61.90
2022-11-03T03:39:33.918Z,62.53
2022-11-03T03:42:03.058Z,62.06
2022-11-03T03:44:32.328Z,62.02
2022-11-03T03:47:03.763Z,62.31
2022-11-03T03:49:30.406Z,62.02
2022-11-03T03:51:56.882Z,62.13
2022-11-03T03:54:23.336Z,62.30
2022-11-03T03:56:58.077Z,62.34
2022-11-03T03:59:24.589Z,61.83
2022-11-03T04:01:51.314Z,61.92
2022-11-03T04:04:17.870Z,61.93
2022-11-03T04:06:44.547Z,62.16
2022-11-03T04:09:11.220Z,62.39
2022-11-03T04:11:37.664Z,62.54
2022-11-03T04:14:04.297Z,62.67
2022-11-03T04:16:30.834Z,62.91
2022-11-03T04:18:57.478Z,63.27
2022-11-03T04:21:23.931Z,63.48
2022-11-03T04:23:50.905Z,63.68
2022-11-03T04:26:20.470Z,64.08
2022-11-03T04:28:46.941Z,63.73
2022-11-03T04:31:15.177Z,63.90
2022-11-03T04:33:42.007Z,64.93
2022-11-03T04:36:22.142Z,65.42
2022-11-03T04:38:50.281Z,64.09
2022-11-03T04:41:36.650Z,64.38
2022-11-03T04:44:10.679Z,64.37
2022-11-03T04:46:37.253Z,63.96
2022-11-03T04:49:10.753Z,63.94
2022-11-03T04:51:37.196Z,63.79
2022-11-03T04:54:15.533Z,64.35
2022-11-03T04:56:42.028Z,63.64
2022-11-03T04:59:13.333Z,64.31
2022-11-03T05:01:40.563Z,63.83
2022-11-03T05:04:16.277Z,64.33
2022-11-03T05:06:49.994Z,64.25
2022-11-03T05:09:23.204Z,64.26
2022-11-03T05:11:49.737Z,63.63
2022-11-03T05:14:27.295Z,64.38
2022-11-03T05:16:55.326Z,63.96
2022-11-03T05:19:27.495Z,64.68
2022-11-03T05:21:58.078Z,64.17
2022-11-03T05:24:25.060Z,64.08
2022-11-03T05:26:53.098Z,64.21
2022-11-03T05:29:41.090Z,64.80
2022-11-03T05:32:14.547Z,65.71
2022-11-03T05:34:43.865Z,65.03
2022-11-03T05:37:27.194Z,66.42
2022-11-03T05:39:57.469Z,65.27
2022-11-03T05:42:34.141Z,66.38
2022-11-03T05:45:04.558Z,65.10
2022-11-03T05:47:38.219Z,66.42
2022-11-03T05:50:20.883Z,66.36
2022-11-03T05:52:49.708Z,65.32
2022-11-03T05:55:37.213Z,66.65
2022-11-03T05:58:25.375Z,66.85
2022-11-03T06:00:52.804Z,65.28
2022-11-03T06:03:25.583Z,66.39
2022-11-03T06:05:53.364Z,65.25
2022-11-03T06:10:58.050Z,66.29
2022-11-03T06:13:32.677Z,66.28
2022-11-03T06:16:02.655Z,65.67
2022-11-03T06:18:36.818Z,65.80
2022-11-03T06:21:07.791Z,65.43
2022-11-03T06:23:36.198Z,65.05
2022-11-03T06:26:03.941Z,65.07
2022-11-03T06:28:34.234Z,65.14
2022-11-03T06:31:00.824Z,65.18
2022-11-03T06:33:30.113Z,65.46
2022-11-03T06:36:01.867Z,65.91
2022-11-03T06:38:31.738Z,65.51
2022-11-03T06:40:58.797Z,65.33
2022-11-03T06:43:31.263Z,65.28
2022-11-03T06:45:58.938Z,65.07
2022-11-03T06:48:28.115Z,65.25
2022-11-03T06:50:56.316Z,65.02
2022-11-03T06:53:27.459Z,65.51
2022-11-03T06:55:54.497Z,64.63
2022-11-03T06:58:37.337Z,65.57
2022-11-03T07:01:31.181Z,65.06
2022-11-03T07:04:03.349Z,64.58
2022-11-03T07:06:32.266Z,64.46
2022-11-03T07:09:01.111Z,64.57
2022-11-03T07:11:35.500Z,64.84
2022-11-03T07:14:11.539Z,64.82
2022-11-03T07:16:47.237Z,64.73
2022-11-03T07:19:21.863Z,64.61
2022-11-03T07:22:21.976Z,64.54
2022-11-03T07:24:53.966Z,64.29
2022-11-03T07:27:39.063Z,64.53
2022-11-03T07:30:08.136Z,64.30
2022-11-03T07:32:35.364Z,64.06
2022-11-03T07:36:00.280Z,64.27
2022-11-03T07:38:24.658Z,63.59
2022-11-03T07:40:51.768Z,63.98
2022-11-03T07:43:36.082Z,64.03
2022-11-03T07:46:04.678Z,63.58
2022-11-03T07:48:44.463Z,63.58
2022-11-03T07:51:31.004Z,63.64
2022-11-03T07:54:13.550Z,63.78
2022-11-03T07:56:43.375Z,63.56
2022-11-03T07:59:09.864Z,63.57
2022-11-03T08:01:45.484Z,63.45
2022-11-03T08:04:21.699Z,63.61
2022-11-03T08:06:48.545Z,63.66
2022-11-03T08:09:15.695Z,63.93
2022-11-03T08:11:42.163Z,63.97
2022-11-03T08:14:08.926Z,64.39
2022-11-03T08:16:35.425Z,64.55
2022-11-03T08:19:02.091Z,64.62
2022-11-03T08:21:28.983Z,64.47
2022-11-03T08:23:55.497Z,64.33
2022-11-03T08:26:22.095Z,64.05
2022-11-03T08:28:48.728Z,64.04
2022-11-03T08:31:15.465Z,64.10
2022-11-03T08:33:42.002Z,63.79
2022-11-03T08:36:08.845Z,63.99
2022-11-03T08:38:35.471Z,64.24
2022-11-03T08:41:02.045Z,64.16
2022-11-03T08:43:28.919Z,64.17
2022-11-03T08:45:55.868Z,64.31
2022-11-03T08:48:25.269Z,64.23
2022-11-03T08:50:51.826Z,64.18
2022-11-03T08:53:18.325Z,64.31
2022-11-03T08:55:45.095Z,64.24
2022-11-03T08:58:11.753Z,64.37
2022-11-03T09:00:41.130Z,64.25
2022-11-03T09:03:08.043Z,64.65
2022-11-03T09:05:34.679Z,64.66
2022-11-03T09:10:47.937Z,64.63
2022-11-03T09:13:17.282Z,64.48
2022-11-03T09:15:44.175Z,64.54
2022-11-03T09:18:11.023Z,64.42
2022-11-03T09:20:37.783Z,64.32
2022-11-03T09:23:04.392Z,64.26
2022-11-03T09:25:30.911Z,64.08
2022-11-03T09:27:57.473Z,64.01
2022-11-03T09:30:23.996Z,64.08
2022-11-03T09:32:50.674Z,64.06
2022-11-03T09:35:17.280Z,63.95
2022-11-03T09:37:44.278Z,63.54
2022-11-03T09:40:13.596Z,63.50
2022-11-03T09:42:40.906Z,63.60
2022-11-03T09:45:08.378Z,63.84
2022-11-03T09:47:40.455Z,63.71
2022-11-03T09:50:14.118Z,63.50
2022-11-03T09:52:40.872Z,63.38
2022-11-03T09:55:21.642Z,63.08
2022-11-03T09:57:48.507Z,63.13
2022-11-03T10:00:24.411Z,63.11
2022-11-03T10:02:51.059Z,63.57
2022-11-03T10:05:24.961Z,63.72
2022-11-03T10:10:41.475Z,63.83
2022-11-03T10:13:08.541Z,63.69
2022-11-03T10:15:35.539Z,63.71
2022-11-03T10:18:02.431Z,63.30
2022-11-03T10:20:29.471Z,63.27
2022-11-03T10:22:55.908Z,63.08
2022-11-03T10:25:35.906Z,62.50
2022-11-03T10:28:17.657Z,62.51
2022-11-03T10:31:10.530Z,62.36
2022-11-03T10:33:39.796Z,62.54
2022-11-03T10:36:14.984Z,61.94
2022-11-03T10:38:42.179Z,62.76
2022-11-03T10:41:14.576Z,62.60
2022-11-03T10:43:43.005Z,62.98
2022-11-03T10:46:29.512Z,63.07
2022-11-03T10:49:03.706Z,62.88
2022-11-03T10:51:30.357Z,63.02
2022-11-03T10:53:57.266Z,63.02
2022-11-03T10:56:24.057Z,62.79
2022-11-03T10:58:51.333Z,62.62
2022-11-03T11:01:18.169Z,62.41
2022-11-03T11:03:45.245Z,62.59
2022-11-03T11:06:22.913Z,61.73
2022-11-03T11:08:54.810Z,62.50
2022-11-03T11:11:24.282Z,62.39
2022-11-03T11:14:23.874Z,61.07
2022-11-03T11:16:59.892Z,60.45
2022-11-03T11:19:28.478Z,60.90
2022-11-03T11:21:54.937Z,60.92
2022-11-03T11:24:44.560Z,61.06
2022-11-03T11:27:32.630Z,60.62
2022-11-03T11:30:05.246Z,60.63
2022-11-03T11:32:47.131Z,60.42
2022-11-03T11:35:38.951Z,60.61
2022-11-03T11:38:43.835Z,60.22
2022-11-03T11:41:10.333Z,61.14
2022-11-03T11:43:37.192Z,60.98
2022-11-03T11:46:22.276Z,60.06
2022-11-03T11:48:57.679Z,59.31
2022-11-03T11:51:24.634Z,59.70
2022-11-03T11:54:09.912Z,59.64
2022-11-03T11:56:43.822Z,58.83
2022-11-03T11:59:24.264Z,59.06
2022-11-03T12:01:55.184Z,59.79
2022-11-03T12:04:29.640Z,59.21
2022-11-03T12:06:56.275Z,60.24
2022-11-03T12:09:26.143Z,59.86
2022-11-03T12:12:00.470Z,59.05
2022-11-03T12:14:33.546Z,58.47
2022-11-03T12:17:20.076Z,58.49
2022-11-03T12:19:54.127Z,58.52
2022-11-03T12:22:23.641Z,59.33
2022-11-03T12:24:53.843Z,59.72
2022-11-03T12:27:26.019Z,59.21
2022-11-03T12:29:54.317Z,58.93
2022-11-03T12:32:33.038Z,59.22
2022-11-03T12:35:04.813Z,59.38
2022-11-03T12:37:31.386Z,59.54
2022-11-03T12:39:58.123Z,59.77
2022-11-03T12:42:24.604Z,59.62
2022-11-03T12:44:51.380Z,59.83
2022-11-03T12:47:18.012Z,59.62
2022-11-03T12:49:44.517Z,59.83
2022-11-03T12:52:11.119Z,59.73
2022-11-03T12:54:37.714Z,59.55
2022-11-03T12:57:04.162Z,59.18
2022-11-03T12:59:30.698Z,59.06
2022-11-03T13:01:57.576Z,58.80
2022-11-03T13:04:24.367Z,59.14
2022-11-03T13:06:50.838Z,59.01
2022-11-03T13:09:17.496Z,59.16
2022-11-03T13:11:44.086Z,59.14
2022-11-03T13:14:10.576Z,59.42
2022-11-03T13:16:37.996Z,59.95
2022-11-03T13:19:04.578Z,60.21
2022-11-03T13:21:31.078Z,60.63
2022-11-03T13:23:57.742Z,60.36
2022-11-03T13:26:24.440Z,59.37
2022-11-03T13:28:51.037Z,58.78
2022-11-03T13:31:17.595Z,58.87
2022-11-03T13:33:44.239Z,58.29
2022-11-03T13:36:10.852Z,58.68
2022-11-03T13:38:37.605Z,58.58
2022-11-03T13:41:08.830Z,58.29
2022-11-03T13:43:36.098Z,58.00
2022-11-03T13:46:02.871Z,57.79
2022-11-03T13:51:16.646Z,56.62
2022-11-03T13:56:30.371Z,56.39
2022-11-03T14:01:43.870Z,56.18
2022-11-03T14:06:57.168Z,56.23
2022-11-03T14:09:24.370Z,56.34
2022-11-03T14:11:51.232Z,56.60
2022-11-03T14:14:17.709Z,56.58
2022-11-03T14:16:44.421Z,56.62
2022-11-03T14:19:11.034Z,56.66
2022-11-03T14:21:37.618Z,56.90
2022-11-03T14:24:06.712Z,56.54
2022-11-03T14:26:42.554Z,56.92
2022-11-03T14:29:09.780Z,56.89
2022-11-03T14:31:36.576Z,57.00
2022-11-03T14:34:03.051Z,56.94
2022-11-03T14:36:29.597Z,57.02
2022-11-03T14:38:56.241Z,56.86
2022-11-03T14:41:22.813Z,56.91
2022-11-03T14:43:49.383Z,57.09
2022-11-03T14:46:15.963Z,57.37
2022-11-03T14:48:42.660Z,57.49
2022-11-03T14:51:09.142Z,57.55
2022-11-03T14:53:35.637Z,57.80
2022-11-03T14:56:02.102Z,57.90
2022-11-03T14:58:28.777Z,57.97
2022-11-03T15:00:55.281Z,57.94
2022-11-03T15:03:21.966Z,58.03
2022-11-03T15:05:48.435Z,58.18
2022-11-03T15:08:17.424Z,58.34
2022-11-03T15:10:44.402Z,58.50
2022-11-03T15:13:11.020Z,58.62
2022-11-03T15:15:37.561Z,58.73
2022-11-03T15:18:04.203Z,58.94
2022-11-03T15:20:31.488Z,59.06
2022-11-03T15:25:44.534Z,59.33
2022-11-03T15:28:11.072Z,59.45
2022-11-03T15:30:38.076Z,59.73
2022-11-03T15:33:04.919Z,59.98
2022-11-03T15:35:31.764Z,60.08
2022-11-03T15:37:58.301Z,60.13
2022-11-03T15:40:26.226Z,60.24
2022-11-03T15:42:52.938Z,60.32
2022-11-03T15:45:19.423Z,60.31
2022-11-03T15:47:46.193Z,60.39
2022-11-03T15:50:13.182Z,60.35
2022-11-03T15:52:39.646Z,60.34
2022-11-03T15:55:07.350Z,60.35
2022-11-03T15:57:34.143Z,60.56
2022-11-03T16:00:00.937Z,60.58
2022-11-03T16:02:40.677Z,60.41
2022-11-03T16:05:09.414Z,60.45
2022-11-03T16:07:36.008Z,60.59
2022-11-03T16:10:02.898Z,60.53
2022-11-03T16:12:30.071Z,60.52
2022-11-03T16:14:56.609Z,60.60
2022-11-03T16:17:23.306Z,60.66
2022-11-03T16:19:50.602Z,60.70
2022-11-03T16:22:17.220Z,60.78
2022-11-03T16:24:43.805Z,60.51
2022-11-03T16:27:10.528Z,60.79
2022-11-03T16:29:37.078Z,60.97
2022-11-03T16:32:03.785Z,60.89
2022-11-03T16:34:30.252Z,60.99
2022-11-03T16:36:56.968Z,61.23
2022-11-03T16:39:23.461Z,61.25
2022-11-03T16:41:49.928Z,61.19
2022-11-03T16:44:16.509Z,61.24
2022-11-03T16:46:43.090Z,61.19
2022-11-03T16:49:09.709Z,61.16
2022-11-03T16:51:36.463Z,61.26
2022-11-03T16:54:03.019Z,61.37
2022-11-03T16:56:29.458Z,61.51
2022-11-03T16:58:56.079Z,61.45
2022-11-03T17:01:22.716Z,61.53
2022-11-03T17:03:49.497Z,61.52
2022-11-03T17:06:15.958Z,61.51
2022-11-03T17:08:57.732Z,61.63
2022-11-03T17:11:24.421Z,61.71
2022-11-03T17:13:51.068Z,61.59
2022-11-03T17:16:17.811Z,61.53
2022-11-03T17:18:44.272Z,61.50
2022-11-03T17:21:10.977Z,61.65
2022-11-03T17:23:37.532Z,61.65
2022-11-03T17:26:04.482Z,61.71
2022-11-03T17:28:31.391Z,61.63
2022-11-03T17:30:57.887Z,61.63
2022-11-03T17:33:24.386Z,61.72
2022-11-03T17:35:50.866Z,61.79
2022-11-03T17:38:18.478Z,61.82
2022-11-03T17:40:46.736Z,61.81
2022-11-03T17:43:33.550Z,62.54
2022-11-03T17:46:00.112Z,61.86
2022-11-03T17:48:26.593Z,61.85
2022-11-03T17:50:55.803Z,61.98
2022-11-03T17:53:28.697Z,62.38
2022-11-03T17:56:23.838Z,62.01
2022-11-03T17:58:46.999Z,61.87
2022-11-03T18:01:21.568Z,62.56
2022-11-03T18:03:48.459Z,62.13
2022-11-03T18:06:19.771Z,62.80
2022-11-03T18:08:47.622Z,62.27
2022-11-03T18:11:42.178Z,63.01
2022-11-03T18:14:08.761Z,62.36
2022-11-03T18:16:35.293Z,62.40
2022-11-03T18:19:01.875Z,62.52
2022-11-03T18:21:29.836Z,62.70
2022-11-03T18:23:56.322Z,63.32
2022-11-03T18:26:25.580Z,63.03
2022-11-03T18:28:52.518Z,62.92
2022-11-03T18:31:23.339Z,63.07
2022-11-03T18:33:51.709Z,63.24
2022-11-03T18:36:19.032Z,63.20
2022-11-03T18:38:46.115Z,63.21
2022-11-03T18:41:18.146Z,63.44
2022-11-03T18:43:44.801Z,63.40
2022-11-03T18:46:11.237Z,63.61
2022-11-03T18:48:37.830Z,63.66
2022-11-03T18:51:04.364Z,63.53
2022-11-03T18:53:30.969Z,63.74
2022-11-03T18:56:00.884Z,64.06
2022-11-03T18:58:27.620Z,63.90
2022-11-03T19:00:54.447Z,64.07
2022-11-03T19:03:23.299Z,64.21
2022-11-03T19:05:52.604Z,64.31
2022-11-03T19:08:25.573Z,64.92
2022-11-03T19:10:54.298Z,64.50
2022-11-03T19:13:27.272Z,65.24
2022-11-03T19:15:54.063Z,64.34
2022-11-03T19:18:20.750Z,64.33
2022-11-03T19:20:47.201Z,64.46
2022-11-03T19:23:13.710Z,64.46
2022-11-03T19:25:41.802Z,64.76
2022-11-03T19:28:11.205Z,65.19
2022-11-03T19:30:37.767Z,64.33
2022-11-03T19:33:05.274Z,64.40
2022-11-03T19:35:34.992Z,64.39
2022-11-03T19:38:04.640Z,64.68
2022-11-03T19:40:31.785Z,64.52
2022-11-03T19:42:58.573Z,64.64
2022-11-03T19:45:25.444Z,64.58
2022-11-03T19:50:46.120Z,64.53
2022-11-03T19:53:19.305Z,65.13
2022-11-03T19:55:46.267Z,64.55
2022-11-03T19:58:24.568Z,65.13
2022-11-03T20:00:51.987Z,64.45
2022-11-03T20:03:19.056Z,64.36
2022-11-03T20:05:49.479Z,64.47
2022-11-03T20:08:20.437Z,64.93
2022-11-03T20:10:47.305Z,64.57
2022-11-03T20:13:15.522Z,64.61
2022-11-03T20:15:42.307Z,64.52
2022-11-03T20:18:12.113Z,64.84
2022-11-03T20:20:40.234Z,64.75
2022-11-03T20:23:07.499Z,64.93
2022-11-03T20:25:35.686Z,64.46
2022-11-03T20:28:13.713Z,65.63
2022-11-03T20:30:40.100Z,65.98
2022-11-03T20:33:07.115Z,64.70
2022-11-03T20:35:35.463Z,64.63
2022-11-03T20:38:02.015Z,64.50
2022-11-03T20:40:31.718Z,64.83
2022-11-03T20:43:01.202Z,64.82
2022-11-03T20:45:28.041Z,64.56
2022-11-03T20:47:54.483Z,64.51
2022-11-03T20:50:21.029Z,64.53
2022-11-03T20:52:48.674Z,64.25
2022-11-03T20:55:21.200Z,64.81
2022-11-03T20:57:49.330Z,64.22
2022-11-03T21:00:26.843Z,65.00
2022-11-03T21:02:55.317Z,64.62
2022-11-03T21:05:25.170Z,64.51
2022-11-03T21:07:53.212Z,64.46
2022-11-03T21:10:20.848Z,64.55
2022-11-03T21:12:47.924Z,64.47
2022-11-03T21:15:17.066Z,64.66
2022-11-03T21:17:43.814Z,64.51
2022-11-03T21:20:10.857Z,64.55
2022-11-03T21:22:56.142Z,65.25
2022-11-03T21:25:24.221Z,65.05
2022-11-03T21:27:51.507Z,65.20
2022-11-03T21:30:18.409Z,65.19
2022-11-03T21:32:45.162Z,65.55
2022-11-03T21:35:15.287Z,65.88
2022-11-03T21:37:41.948Z,65.47
2022-11-03T21:40:09.186Z,65.74
2022-11-03T21:42:35.708Z,65.66
2022-11-03T21:45:02.286Z,65.67
2022-11-03T21:47:28.942Z,65.56
2022-11-03T21:49:55.499Z,65.53
2022-11-03T21:52:23.267Z,65.56
2022-11-03T21:54:49.736Z,65.41
2022-11-03T21:57:16.426Z,65.50
2022-11-03T21:59:43.031Z,65.58
2022-11-03T22:02:12.053Z,65.86
2022-11-03T22:04:38.737Z,65.70
2022-11-03T22:07:05.227Z,65.81
2022-11-03T22:09:31.917Z,65.78
2022-11-03T22:11:58.608Z,65.72
2022-11-03T22:14:25.356Z,65.81
2022-11-03T22:16:52.144Z,65.82
2022-11-03T22:19:22.536Z,66.06
2022-11-03T22:21:49.679Z,65.50
2022-11-03T22:24:16.247Z,65.67
2022-11-03T22:26:42.830Z,65.54
2022-11-03T22:29:09.276Z,65.52
2022-11-03T22:31:35.977Z,65.43
2022-11-03T22:34:02.536Z,65.47
2022-11-03T22:36:29.059Z,65.46
2022-11-03T22:38:55.501Z,65.48
2022-11-03T22:41:22.092Z,65.52
2022-11-03T22:43:48.765Z,65.56
2022-11-03T22:46:16.700Z,65.35
2022-11-03T22:48:43.987Z,65.51
2022-11-03T22:51:15.769Z,65.48
2022-11-03T22:53:43.405Z,65.50
2022-11-03T22:56:10.282Z,65.48
2022-11-03T22:58:37.000Z,65.42
2022-11-03T23:01:05.910Z,65.25
2022-11-03T23:03:37.902Z,65.29
2022-11-03T23:06:08.869Z,65.22
2022-11-03T23:08:37.344Z,65.08
2022-11-03T23:11:12.112Z,65.06
2022-11-03T23:13:38.853Z,64.93
2022-11-03T23:16:13.994Z,65.04
2022-11-03T23:18:40.771Z,64.86
2022-11-03T23:21:08.143Z,64.96
2022-11-03T23:23:36.894Z,65.11
2022-11-03T23:26:03.543Z,64.75
2022-11-03T23:28:30.049Z,65.12
2022-11-03T23:30:56.680Z,65.06
2022-11-03T23:33:23.141Z,65.15
2022-11-03T23:35:49.663Z,65.00
2022-11-03T23:38:16.239Z,64.75
2022-11-03T23:40:42.771Z,64.56
2022-11-03T23:43:09.325Z,64.28
2022-11-03T23:45:36.329Z,64.12
2022-11-03T23:48:03.121Z,63.93
2022-11-03T23:50:29.630Z,63.50
2022-11-03T23:52:56.140Z,63.28
2022-11-03T23:55:23.239Z,62.82
2022-11-03T23:57:49.774Z,62.25
